This is the latest recevied weather packets stored in our database for station/object IV3ONZ. If no packets are shown the sender has not sent any weather packets the latest 10 day(s).
| Time | Temp. | Humidity | Pressure | Rain* | Wind** | Luminosity | Snow |
|---|---|---|---|---|---|---|---|
| 1777834937 | 16.11° C | 51% | 1019.8 hPa | 0 mm | - | 0 W/m² | - |
| 1777833135 | 16.67° C | 51% | 1019.7 hPa | 0 mm | - | 0 W/m² | - |
| 1777828803 | 20.56° C | 44% | 1019.9 hPa | 0 mm | - | 61 W/m² | - |
| 1777826704 | 22.22° C | 43% | 1020 hPa | 0 mm | - | 102 W/m² | - |
| 1777826404 | 22.22° C | 42% | 1020 hPa | 0 mm | - | 140 W/m² | - |
| 1777824904 | 22.22° C | 35% | 1020.2 hPa | 0 mm | - | 159 W/m² | - |
| 1777824134 | 22.78° C | 33% | 1020.1 hPa | 0 mm | - | 252 W/m² | - |
| 1777823404 | 22.78° C | 34% | 1020.1 hPa | 0 mm | - | 76 W/m² | - |
| 1777823104 | 22.78° C | 34% | 1020.3 hPa | 0 mm | - | 316 W/m² | - |
| 1777820704 | 23.33° C | 34% | 1020.3 hPa | 0 mm | - | 445 W/m² | - |
| 1777819804 | 23.33° C | 34% | 1020.4 hPa | 0 mm | - | 498 W/m² | - |
| 1777819504 | 23.89° C | 33% | 1020.3 hPa | 0 mm | - | 514 W/m² | - |
| 1777818903 | 23.33° C | 35% | 1020.6 hPa | 0 mm | - | 546 W/m² | - |
| 1777818733 | 23.89° C | 35% | 1020.4 hPa | 0 mm | - | 552 W/m² | - |
| 1777818304 | 23.89° C | 34% | 1020.6 hPa | 0 mm | - | 579 W/m² | - |
| 1777816936 | 23.33° C | 33% | 1020.7 hPa | 0 mm | - | 631 W/m² | - |
| 1777816203 | 23.89° C | 33% | 1020.7 hPa | 0 mm | - | 669 W/m² | - |
| 1777816034 | 23.89° C | 34% | 1020.8 hPa | 0 mm | - | 679 W/m² | - |
| 1777812004 | 23.33° C | 33% | 1021.4 hPa | 0 mm | - | 751 W/m² | - |
| 1777811106 | 23.89° C | 33% | 1021.5 hPa | 0 mm | - | 845 W/m² | - |
| 1777810804 | 23.89° C | 35% | 1021.4 hPa | 0 mm | - | 830 W/m² | - |
| 1777809605 | 23.33° C | 37% | 1021.3 hPa | 0 mm | - | 866 W/m² | - |
| 1777809303 | 22.78° C | 37% | 1021.5 hPa | 0 mm | - | 819 W/m² | - |
| 1777807804 | 22.22° C | 45% | 1021.3 hPa | 0 mm | - | 774 W/m² | - |
| 1777806903 | 22.78° C | 45% | 1021.5 hPa | 0 mm | - | 875 W/m² | - |
* Rain latest hour (hover to see other rain measurements)
** Current wind speed in m/s (hover to see current wind gust speed)